createdAt,value
2019-05-20T00:01:47.251Z,6.08
2019-05-20T00:05:52.202Z,5.40
2019-05-20T00:09:57.607Z,5.37
2019-05-20T00:14:02.366Z,5.33
2019-05-20T00:18:07.271Z,5.08
2019-05-20T00:22:12.140Z,4.83
2019-05-20T00:26:16.951Z,5.45
2019-05-20T00:30:22.004Z,5.37
2019-05-20T00:34:35.203Z,5.17
2019-05-20T00:38:33.814Z,5.15
2019-05-20T00:42:41.374Z,5.45
2019-05-20T00:46:46.284Z,5.30
2019-05-20T00:50:51.101Z,5.03
2019-05-20T00:54:56.061Z,5.03
2019-05-20T00:59:01.477Z,5.22
2019-05-20T01:03:06.345Z,5.28
2019-05-20T01:07:11.095Z,6.25
2019-05-20T01:11:15.908Z,5.25
2019-05-20T01:15:21.095Z,5.15
2019-05-20T01:19:25.912Z,5.35
2019-05-20T01:23:30.799Z,5.50
2019-05-20T01:27:35.692Z,5.45
2019-05-20T01:31:40.504Z,5.72
2019-05-20T01:35:45.410Z,6.50
2019-05-20T01:39:50.137Z,5.72
2019-05-20T01:43:54.947Z,4.92
2019-05-20T01:47:59.777Z,5.72
2019-05-20T01:52:04.653Z,5.65
2019-05-20T01:56:09.542Z,5.97
2019-05-20T02:00:14.937Z,6.05
2019-05-20T02:04:19.912Z,6.58
2019-05-20T02:08:24.788Z,6.80
2019-05-20T02:12:29.753Z,6.28
2019-05-20T02:16:34.656Z,6.97
2019-05-20T02:20:39.469Z,7.50
2019-05-20T02:24:44.331Z,6.97
2019-05-20T02:28:49.136Z,7.03
2019-05-20T02:32:53.877Z,8.35
2019-05-20T02:36:59.597Z,8.80
2019-05-20T02:41:04.570Z,9.05
2019-05-20T02:45:13.754Z,9.53
2019-05-20T02:49:18.578Z,10.35
2019-05-20T02:53:23.481Z,10.88
2019-05-20T02:57:28.692Z,10.58
2019-05-20T03:01:33.576Z,11.75
2019-05-20T03:05:38.581Z,11.80
2019-05-20T03:09:43.397Z,12.20
2019-05-20T03:13:48.661Z,13.00
2019-05-20T03:17:53.827Z,12.45
2019-05-20T03:21:58.636Z,13.15
2019-05-20T03:26:03.544Z,14.35
2019-05-20T03:30:09.179Z,14.90
2019-05-20T03:34:41.754Z,16.30
2019-05-20T03:38:20.572Z,16.35
2019-05-20T03:42:25.468Z,16.42
2019-05-20T03:46:30.397Z,17.37
2019-05-20T03:50:35.260Z,14.53
2019-05-20T03:54:40.165Z,14.03
2019-05-20T03:58:45.302Z,14.98
2019-05-20T04:02:50.117Z,14.38
2019-05-20T04:06:54.943Z,14.60
2019-05-20T04:10:59.667Z,15.65
2019-05-20T04:15:05.133Z,15.65
2019-05-20T04:19:10.022Z,16.75
2019-05-20T04:23:14.864Z,15.43
2019-05-20T04:27:19.849Z,17.87
2019-05-20T04:31:24.725Z,15.78
2019-05-20T04:35:29.635Z,16.10
2019-05-20T04:39:34.477Z,15.30
2019-05-20T04:43:39.332Z,17.05
2019-05-20T04:47:44.183Z,19.55
2019-05-20T04:51:48.986Z,18.37
2019-05-20T04:55:53.895Z,18.20
2019-05-20T04:59:58.794Z,14.03
2019-05-20T05:04:03.984Z,11.30
2019-05-20T05:08:09.108Z,13.38
2019-05-20T05:12:13.932Z,13.70
2019-05-20T05:16:18.816Z,12.58
2019-05-20T05:20:23.634Z,13.72
2019-05-20T05:24:28.535Z,16.75
2019-05-20T05:28:34.612Z,13.72
2019-05-20T05:32:42.746Z,13.43
2019-05-20T05:36:47.851Z,13.48
2019-05-20T05:40:52.745Z,14.30
2019-05-20T05:44:57.572Z,13.25
2019-05-20T05:49:02.419Z,13.05
2019-05-20T05:53:07.237Z,15.32
2019-05-20T05:57:12.041Z,13.85
2019-05-20T06:01:16.859Z,16.15
2019-05-20T06:05:21.759Z,21.12
2019-05-20T06:09:26.517Z,24.37
2019-05-20T06:13:31.392Z,23.32
2019-05-20T06:17:37.346Z,24.20
2019-05-20T06:21:42.181Z,22.35
2019-05-20T06:25:46.943Z,21.40
2019-05-20T06:29:51.758Z,20.68
2019-05-20T06:33:56.665Z,19.62
2019-05-20T06:38:03.518Z,18.80
2019-05-20T06:42:08.411Z,21.00
2019-05-20T06:46:13.266Z,21.68
2019-05-20T06:50:18.192Z,22.40
2019-05-20T06:54:22.953Z,22.70
2019-05-20T06:58:27.702Z,25.88
2019-05-20T07:02:32.521Z,31.20
2019-05-20T07:06:46.710Z,30.48
2019-05-20T07:10:44.768Z,32.45
2019-05-20T07:14:49.737Z,38.58
2019-05-20T07:18:54.491Z,34.25
2019-05-20T07:22:59.735Z,40.67
2019-05-20T07:27:04.800Z,36.35
2019-05-20T07:31:10.108Z,38.70
2019-05-20T07:35:28.876Z,36.25
2019-05-20T07:39:21.729Z,33.83
2019-05-20T07:43:26.653Z,35.85
2019-05-20T07:47:31.921Z,37.80
2019-05-20T07:51:39.730Z,36.93
2019-05-20T07:55:56.103Z,37.93
2019-05-20T08:00:01.020Z,35.98
2019-05-20T08:04:05.920Z,35.70
2019-05-20T08:08:10.753Z,35.60
2019-05-20T08:12:15.646Z,33.02
2019-05-20T08:16:20.549Z,33.98
2019-05-20T08:20:25.456Z,32.95
2019-05-20T08:24:30.359Z,32.42
2019-05-20T08:28:35.247Z,31.68
2019-05-20T08:32:40.203Z,31.37
2019-05-20T08:36:45.040Z,29.20
2019-05-20T08:40:49.861Z,32.48
2019-05-20T08:44:54.774Z,28.80
2019-05-20T08:48:59.755Z,27.82
2019-05-20T08:53:04.925Z,28.87
2019-05-20T08:57:09.887Z,25.37
2019-05-20T09:01:14.712Z,25.97
2019-05-20T09:05:20.120Z,26.93
2019-05-20T09:09:25.327Z,28.30
2019-05-20T09:13:30.442Z,27.48
2019-05-20T09:17:38.673Z,26.00
2019-05-20T09:21:41.928Z,27.82
2019-05-20T09:25:46.684Z,26.07
2019-05-20T09:29:51.643Z,29.05
2019-05-20T09:33:57.748Z,25.12
2019-05-20T09:38:17.197Z,25.90
2019-05-20T09:42:09.278Z,26.33
2019-05-20T09:46:15.265Z,27.95
2019-05-20T09:50:20.069Z,26.90
2019-05-20T09:54:24.830Z,28.25
2019-05-20T09:58:30.624Z,26.68
2019-05-20T10:02:38.319Z,24.20
2019-05-20T10:06:42.050Z,23.22
2019-05-20T10:10:47.118Z,24.00
2019-05-20T10:14:52.889Z,24.05
2019-05-20T10:18:58.177Z,22.65
2019-05-20T10:23:03.125Z,23.02
2019-05-20T10:27:07.898Z,23.57
2019-05-20T10:31:12.779Z,23.10
2019-05-20T10:35:18.314Z,25.92
2019-05-20T10:39:23.217Z,25.32
2019-05-20T10:43:28.053Z,24.37
2019-05-20T10:47:32.965Z,25.50
2019-05-20T10:51:37.785Z,24.50
2019-05-20T10:55:42.773Z,22.95
2019-05-20T10:59:47.555Z,25.48
2019-05-20T11:03:53.681Z,23.57
2019-05-20T11:07:58.587Z,21.50
2019-05-20T11:12:03.469Z,22.15
2019-05-20T11:16:09.347Z,22.00
2019-05-20T11:20:15.556Z,21.65
2019-05-20T11:24:20.375Z,22.52
2019-05-20T11:28:25.213Z,20.60
2019-05-20T11:32:30.048Z,20.10
2019-05-20T11:36:34.962Z,20.05
2019-05-20T11:40:39.844Z,21.90
2019-05-20T11:44:44.754Z,22.52
2019-05-20T11:48:49.528Z,21.62
2019-05-20T11:52:54.369Z,25.02
2019-05-20T11:56:59.090Z,26.17
2019-05-20T12:01:04.212Z,24.27
2019-05-20T12:05:10.096Z,26.27
2019-05-20T12:09:15.997Z,27.02
2019-05-20T12:13:20.807Z,29.00
2019-05-20T12:17:25.610Z,27.48
2019-05-20T12:21:30.908Z,24.30
2019-05-20T12:25:35.976Z,21.37
2019-05-20T12:29:40.862Z,20.95
2019-05-20T12:33:45.704Z,16.20
2019-05-20T12:37:50.518Z,17.27
2019-05-20T12:41:55.430Z,16.32
2019-05-20T12:46:00.447Z,16.10
2019-05-20T12:50:06.378Z,13.03
2019-05-20T12:54:11.122Z,12.18
2019-05-20T12:58:16.125Z,11.63
2019-05-20T13:02:20.946Z,9.65
2019-05-20T13:06:26.933Z,8.40
2019-05-20T13:10:32.593Z,6.87
2019-05-20T13:14:37.917Z,5.33
2019-05-20T13:18:54.942Z,6.03
2019-05-20T13:22:49.235Z,5.70
2019-05-20T13:26:54.208Z,5.72
2019-05-20T13:30:58.965Z,5.45
2019-05-20T13:35:03.922Z,4.65
2019-05-20T13:39:08.856Z,4.30
2019-05-20T13:43:13.652Z,2.37
2019-05-20T13:47:18.494Z,2.50
2019-05-20T13:51:23.228Z,2.67
2019-05-20T13:55:27.974Z,2.33
2019-05-20T13:59:33.010Z,2.30
2019-05-20T14:03:37.815Z,2.47
2019-05-20T14:07:43.260Z,2.55
2019-05-20T14:11:48.077Z,1.80
2019-05-20T14:15:52.963Z,1.45
2019-05-20T14:19:57.716Z,2.00
2019-05-20T14:24:02.590Z,2.72
2019-05-20T14:28:07.474Z,5.72
2019-05-20T14:32:12.352Z,8.80
2019-05-20T14:36:37.976Z,10.25
2019-05-20T14:40:23.812Z,11.68
2019-05-20T14:44:28.730Z,12.28
2019-05-20T14:48:33.564Z,13.78
2019-05-20T14:52:38.605Z,13.43
2019-05-20T14:56:43.537Z,10.32
2019-05-20T15:00:48.428Z,11.88
2019-05-20T15:04:53.337Z,12.60
2019-05-20T15:08:58.164Z,9.65
2019-05-20T15:13:02.904Z,10.48
2019-05-20T15:17:07.877Z,10.25
2019-05-20T15:21:12.696Z,10.10
2019-05-20T15:25:17.892Z,11.75
2019-05-20T15:29:28.000Z,10.53
2019-05-20T15:33:29.197Z,8.78
2019-05-20T15:37:34.419Z,10.48
2019-05-20T15:41:39.305Z,9.23
2019-05-20T15:45:44.213Z,9.10
2019-05-20T15:49:48.938Z,9.73
2019-05-20T15:53:53.841Z,7.70
2019-05-20T15:57:58.758Z,7.95
2019-05-20T16:02:03.664Z,7.30
2019-05-20T16:06:08.530Z,5.33
2019-05-20T16:10:14.217Z,3.72
2019-05-20T16:14:19.033Z,3.05
2019-05-20T16:18:23.853Z,2.67
2019-05-20T16:22:28.796Z,2.30
2019-05-20T16:26:33.687Z,2.40
2019-05-20T16:30:38.736Z,2.37
2019-05-20T16:34:43.560Z,2.10
2019-05-20T16:38:48.280Z,2.72
2019-05-20T16:42:53.196Z,2.90
2019-05-20T16:46:58.087Z,3.30
2019-05-20T16:51:03.681Z,3.77
2019-05-20T16:55:09.291Z,3.58
2019-05-20T16:59:14.380Z,5.37
2019-05-20T17:03:23.946Z,6.17
2019-05-20T17:07:28.978Z,6.83
2019-05-20T17:11:33.764Z,7.92
2019-05-20T17:15:38.900Z,6.70
2019-05-20T17:19:43.722Z,10.20
2019-05-20T17:23:48.562Z,11.75
2019-05-20T17:27:53.396Z,13.85
2019-05-20T17:31:58.204Z,14.83
2019-05-20T17:36:03.370Z,16.35
2019-05-20T17:40:09.301Z,17.07
2019-05-20T17:44:14.196Z,16.42
2019-05-20T17:48:19.193Z,18.42
2019-05-20T17:52:24.106Z,17.42
2019-05-20T17:56:28.924Z,19.30
2019-05-20T18:00:33.737Z,19.80
2019-05-20T18:04:38.634Z,22.17
2019-05-20T18:08:46.424Z,23.75
2019-05-20T18:12:51.178Z,21.82
2019-05-20T18:16:56.553Z,25.95
2019-05-20T18:21:01.489Z,22.37
2019-05-20T18:25:07.128Z,22.52
2019-05-20T18:29:12.082Z,22.62
2019-05-20T18:33:16.989Z,26.12
2019-05-20T18:37:21.760Z,23.07
2019-05-20T18:41:26.520Z,23.57
2019-05-20T18:45:32.449Z,26.73
2019-05-20T18:49:40.759Z,29.90
2019-05-20T18:53:43.965Z,26.87
2019-05-20T18:57:48.788Z,27.02
2019-05-20T19:02:04.599Z,26.05
2019-05-20T19:06:00.135Z,23.70
2019-05-20T19:10:05.740Z,22.45
2019-05-20T19:14:11.076Z,22.87
2019-05-20T19:18:16.260Z,22.00
2019-05-20T19:22:21.012Z,24.07
2019-05-20T19:26:25.920Z,21.50
2019-05-20T19:30:30.773Z,23.00
2019-05-20T19:34:35.525Z,23.20
2019-05-20T19:38:40.431Z,22.40
2019-05-20T19:42:45.176Z,23.50
2019-05-20T19:46:50.040Z,24.32
2019-05-20T19:50:55.074Z,21.65
2019-05-20T19:54:59.835Z,20.82
2019-05-20T19:59:04.650Z,20.27
2019-05-20T20:03:09.414Z,16.85
2019-05-20T20:07:14.435Z,16.23
2019-05-20T20:11:19.202Z,17.52
2019-05-20T20:15:24.125Z,15.85
2019-05-20T20:19:29.041Z,16.23
2019-05-20T20:23:33.942Z,15.03
2019-05-20T20:27:38.885Z,14.75
2019-05-20T20:31:44.896Z,14.33
2019-05-20T20:35:49.872Z,14.20
2019-05-20T20:39:54.756Z,15.32
2019-05-20T20:43:59.660Z,15.08
2019-05-20T20:48:04.668Z,13.40
2019-05-20T20:52:09.453Z,14.78
2019-05-20T20:56:24.617Z,13.98
2019-05-20T21:00:20.884Z,13.22
2019-05-20T21:04:25.729Z,12.95
2019-05-20T21:08:30.544Z,13.03
2019-05-20T21:12:35.451Z,10.43
2019-05-20T21:16:40.284Z,8.63
2019-05-20T21:20:45.177Z,5.85
2019-05-20T21:24:50.831Z,5.87
2019-05-20T21:28:55.696Z,7.05
2019-05-20T21:33:08.746Z,9.03
2019-05-20T21:37:07.190Z,10.23
2019-05-20T21:41:12.025Z,13.53
2019-05-20T21:45:16.840Z,16.48
2019-05-20T21:49:21.697Z,16.85
2019-05-20T21:53:26.436Z,14.73
2019-05-20T21:57:31.295Z,15.20
2019-05-20T22:01:36.583Z,14.07
2019-05-20T22:05:41.548Z,13.03
2019-05-20T22:09:46.375Z,12.78
2019-05-20T22:13:54.036Z,12.03
2019-05-20T22:17:58.936Z,11.20
2019-05-20T22:22:20.549Z,10.93
2019-05-20T22:26:26.492Z,10.20
2019-05-20T22:30:31.311Z,10.53
2019-05-20T22:34:36.067Z,7.35
2019-05-20T22:38:40.889Z,7.17
2019-05-20T22:42:45.643Z,7.50
2019-05-20T22:46:50.484Z,8.28
2019-05-20T22:50:55.215Z,8.40
2019-05-20T22:54:59.959Z,9.88
2019-05-20T22:59:04.850Z,10.63
2019-05-20T23:03:09.602Z,9.88
2019-05-20T23:07:14.497Z,11.33
2019-05-20T23:11:19.376Z,11.90
2019-05-20T23:15:24.165Z,12.28
2019-05-20T23:19:29.048Z,13.75
2019-05-20T23:23:33.827Z,12.18
2019-05-20T23:27:38.711Z,10.88
2019-05-20T23:31:43.764Z,8.90
2019-05-20T23:35:48.508Z,10.15
2019-05-20T23:39:53.333Z,12.05
2019-05-20T23:43:58.177Z,10.72
2019-05-20T23:48:03.059Z,9.03
2019-05-20T23:52:07.859Z,10.03
2019-05-20T23:56:12.690Z,11.08
